createdAt,value
2019-05-19T00:00:40.870Z,88
2019-05-19T00:01:40.477Z,88
2019-05-19T00:02:41.167Z,88
2019-05-19T00:03:40.619Z,88
2019-05-19T00:11:13.101Z,88
2019-05-19T00:11:22.056Z,88
2019-05-19T00:12:21.930Z,90
2019-05-19T00:13:23.089Z,90
2019-05-19T00:14:23.213Z,90
2019-05-19T00:15:22.063Z,90
2019-05-19T00:16:22.291Z,90
2019-05-19T00:17:22.563Z,90
2019-05-19T00:18:22.499Z,91
2019-05-19T00:19:26.265Z,91
2019-05-19T00:20:23.215Z,91
2019-05-19T00:21:22.015Z,91
2019-05-19T00:22:22.489Z,91
2019-05-19T00:23:22.022Z,91
2019-05-19T00:24:22.056Z,91
2019-05-19T00:25:24.729Z,91
2019-05-19T00:26:22.030Z,91
2019-05-19T00:37:14.799Z,91
2019-05-19T00:38:15.347Z,92
2019-05-19T00:39:15.606Z,92
2019-05-19T00:40:15.172Z,92
2019-05-19T00:41:15.792Z,92
2019-05-19T00:42:16.555Z,92
2019-05-19T00:43:15.368Z,92
2019-05-19T00:44:15.148Z,92
2019-05-19T00:45:15.259Z,92
2019-05-19T00:46:15.510Z,92
2019-05-19T00:47:17.217Z,92
2019-05-19T00:48:15.504Z,92
2019-05-19T00:49:15.478Z,92
2019-05-19T00:50:16.377Z,92
2019-05-19T00:51:15.246Z,92
2019-05-19T00:52:15.458Z,92
2019-05-19T00:53:15.255Z,92
2019-05-19T00:54:15.670Z,92
2019-05-19T00:55:15.159Z,92
2019-05-19T00:56:15.503Z,92
2019-05-19T00:57:15.341Z,92
2019-05-19T00:58:15.149Z,92
2019-05-19T00:59:15.062Z,93
2019-05-19T01:00:15.288Z,93
2019-05-19T01:01:15.595Z,93
2019-05-19T01:02:15.285Z,93
2019-05-19T01:03:15.290Z,93
2019-05-19T01:04:16.679Z,93
2019-05-19T01:05:15.545Z,93
2019-05-19T01:06:15.134Z,93
2019-05-19T01:07:17.233Z,93
2019-05-19T01:08:15.468Z,93
2019-05-19T01:09:15.034Z,93
2019-05-19T01:10:15.609Z,93
2019-05-19T01:11:15.733Z,93
2019-05-19T01:12:15.312Z,93
2019-05-19T01:13:15.485Z,93
2019-05-19T01:14:16.234Z,93
2019-05-19T01:15:15.277Z,93
2019-05-19T01:16:15.178Z,93
2019-05-19T01:17:15.130Z,93
2019-05-19T01:18:15.173Z,93
2019-05-19T01:19:15.859Z,94
2019-05-19T01:20:15.629Z,94
2019-05-19T01:21:15.317Z,94
2019-05-19T01:22:15.868Z,94
2019-05-19T01:23:15.297Z,94
2019-05-19T01:24:15.099Z,93
2019-05-19T01:25:15.351Z,93
2019-05-19T01:26:15.255Z,93
2019-05-19T01:27:15.503Z,93
2019-05-19T01:28:15.166Z,93
2019-05-19T01:29:15.136Z,93
2019-05-19T01:30:15.762Z,93
2019-05-19T01:31:15.131Z,93
2019-05-19T01:35:33.059Z,93
2019-05-19T01:35:42.067Z,93
2019-05-19T01:36:42.756Z,93
2019-05-19T01:37:42.686Z,93
2019-05-19T01:38:41.974Z,93
2019-05-19T01:39:42.066Z,94
2019-05-19T01:40:41.972Z,94
2019-05-19T01:41:42.054Z,94
2019-05-19T01:42:42.232Z,94
2019-05-19T01:43:42.052Z,94
2019-05-19T01:44:42.471Z,94
2019-05-19T01:45:42.005Z,94
2019-05-19T01:46:42.297Z,94
2019-05-19T01:47:42.322Z,94
2019-05-19T01:48:43.251Z,94
2019-05-19T01:49:43.476Z,94
2019-05-19T01:50:41.977Z,94
2019-05-19T01:51:42.516Z,94
2019-05-19T01:52:42.446Z,94
2019-05-19T01:53:42.234Z,94
2019-05-19T01:54:42.872Z,94
2019-05-19T01:55:42.842Z,94
2019-05-19T01:56:42.255Z,94
2019-05-19T01:57:42.521Z,94
2019-05-19T01:58:43.704Z,94
2019-05-19T01:59:42.143Z,95
2019-05-19T02:00:43.104Z,95
2019-05-19T02:01:42.166Z,95
2019-05-19T02:02:42.522Z,95
2019-05-19T02:03:42.535Z,95
2019-05-19T02:06:56.316Z,95
2019-05-19T02:07:05.428Z,95
2019-05-19T02:08:05.272Z,95
2019-05-19T02:09:06.056Z,95
2019-05-19T02:10:05.827Z,95
2019-05-19T02:11:05.192Z,95
2019-05-19T02:12:05.561Z,95
2019-05-19T02:13:05.761Z,95
2019-05-19T02:14:05.634Z,95
2019-05-19T02:15:06.741Z,95
2019-05-19T02:16:05.756Z,95
2019-05-19T02:17:05.323Z,95
2019-05-19T02:18:05.942Z,95
2019-05-19T02:19:06.690Z,95
2019-05-19T02:20:05.487Z,95
2019-05-19T02:21:05.550Z,95
2019-05-19T02:22:05.643Z,95
2019-05-19T02:23:05.425Z,95
2019-05-19T02:24:22.218Z,95
2019-05-19T02:25:05.973Z,95
2019-05-19T02:26:05.324Z,95
2019-05-19T02:27:05.945Z,95
2019-05-19T02:28:05.653Z,95
2019-05-19T02:29:05.341Z,95
2019-05-19T02:30:05.901Z,95
2019-05-19T02:31:06.482Z,95
2019-05-19T02:32:05.807Z,95
2019-05-19T02:33:05.628Z,95
2019-05-19T02:34:06.175Z,95
2019-05-19T02:35:05.398Z,95
2019-05-19T02:36:05.702Z,95
2019-05-19T02:37:05.637Z,95
2019-05-19T02:38:05.413Z,96
2019-05-19T02:39:05.347Z,96
2019-05-19T02:40:05.643Z,96
2019-05-19T02:41:06.438Z,96
2019-05-19T02:42:05.803Z,96
2019-05-19T02:43:05.669Z,96
2019-05-19T02:44:06.285Z,96
2019-05-19T02:45:05.604Z,96
2019-05-19T02:46:06.227Z,95
2019-05-19T02:47:05.905Z,95
2019-05-19T02:48:05.567Z,95
2019-05-19T02:49:05.364Z,95
2019-05-19T02:50:05.646Z,95
2019-05-19T02:51:05.444Z,95
2019-05-19T02:52:05.378Z,95
2019-05-19T02:53:05.860Z,95
2019-05-19T02:56:29.022Z,95
2019-05-19T02:57:29.131Z,95
2019-05-19T02:58:29.264Z,95
2019-05-19T02:59:28.997Z,95
2019-05-19T03:00:29.255Z,95
2019-05-19T03:01:29.175Z,95
2019-05-19T03:02:28.983Z,95
2019-05-19T03:03:29.074Z,95
2019-05-19T03:04:29.087Z,95
2019-05-19T03:05:29.481Z,95
2019-05-19T03:06:34.440Z,95
2019-05-19T03:07:29.296Z,95
2019-05-19T03:08:29.450Z,95
2019-05-19T03:09:29.359Z,95
2019-05-19T03:10:29.719Z,95
2019-05-19T03:11:29.220Z,95
2019-05-19T03:12:29.142Z,95
2019-05-19T03:13:28.980Z,96
2019-05-19T03:14:30.865Z,96
2019-05-19T03:15:30.264Z,96
2019-05-19T03:16:29.112Z,95
2019-05-19T03:17:29.095Z,95
2019-05-19T03:18:29.205Z,96
2019-05-19T03:19:29.502Z,96
2019-05-19T03:20:29.297Z,96
2019-05-19T03:21:29.523Z,96
2019-05-19T03:22:29.074Z,96
2019-05-19T03:23:29.721Z,96
2019-05-19T03:24:29.385Z,96
2019-05-19T03:25:29.106Z,96
2019-05-19T03:26:29.736Z,96
2019-05-19T03:27:30.372Z,96
2019-05-19T03:28:29.183Z,96
2019-05-19T03:29:29.077Z,96
2019-05-19T03:30:29.142Z,96
2019-05-19T03:31:29.413Z,96
2019-05-19T03:32:29.351Z,96
2019-05-19T03:33:30.398Z,96
2019-05-19T03:34:29.548Z,96
2019-05-19T03:35:30.132Z,96
2019-05-19T03:36:29.554Z,96
2019-05-19T03:37:29.163Z,96
2019-05-19T03:38:29.108Z,96
2019-05-19T03:39:29.382Z,96
2019-05-19T03:40:29.016Z,96
2019-05-19T03:41:30.123Z,96
2019-05-19T03:42:30.194Z,96
2019-05-19T03:43:29.092Z,96
2019-05-19T03:44:29.123Z,96
2019-05-19T03:45:29.373Z,96
2019-05-19T03:46:29.217Z,96
2019-05-19T03:47:29.590Z,96
2019-05-19T03:48:29.762Z,96
2019-05-19T03:51:27.333Z,96
2019-05-19T03:51:29.991Z,96
2019-05-19T03:52:20.206Z,96
2019-05-19T03:53:20.211Z,96
2019-05-19T03:54:19.969Z,96
2019-05-19T03:55:19.879Z,96
2019-05-19T03:56:20.317Z,96
2019-05-19T03:57:20.225Z,96
2019-05-19T03:58:20.365Z,96
2019-05-19T03:59:20.890Z,96
2019-05-19T04:00:23.126Z,96
2019-05-19T04:01:19.974Z,96
2019-05-19T04:02:20.584Z,96
2019-05-19T04:03:19.848Z,96
2019-05-19T04:04:19.816Z,96
2019-05-19T04:05:20.296Z,96
2019-05-19T04:06:20.052Z,96
2019-05-19T04:07:19.772Z,96
2019-05-19T04:08:19.880Z,96
2019-05-19T04:09:19.867Z,96
2019-05-19T04:10:20.687Z,96
2019-05-19T04:11:20.385Z,96
2019-05-19T04:12:20.015Z,96
2019-05-19T04:13:19.940Z,96
2019-05-19T04:14:19.849Z,97
2019-05-19T04:15:20.366Z,97
2019-05-19T04:16:20.036Z,97
2019-05-19T04:17:19.948Z,97
2019-05-19T04:18:20.386Z,97
2019-05-19T04:19:20.491Z,97
2019-05-19T04:25:16.226Z,97
2019-05-19T04:25:25.205Z,97
2019-05-19T04:26:25.133Z,97
2019-05-19T04:27:25.388Z,97
2019-05-19T04:28:25.142Z,97
2019-05-19T04:29:25.290Z,97
2019-05-19T04:30:25.097Z,97
2019-05-19T04:31:25.145Z,97
2019-05-19T04:32:25.770Z,97
2019-05-19T04:33:25.289Z,97
2019-05-19T04:34:26.825Z,97
2019-05-19T04:35:25.315Z,97
2019-05-19T04:36:25.008Z,97
2019-05-19T04:37:25.780Z,97
2019-05-19T04:38:25.115Z,97
2019-05-19T04:39:25.422Z,97
2019-05-19T04:40:25.167Z,97
2019-05-19T04:41:25.097Z,97
2019-05-19T04:42:25.755Z,97
2019-05-19T04:43:25.807Z,97
2019-05-19T04:44:26.620Z,97
2019-05-19T04:45:26.623Z,97
2019-05-19T04:46:25.106Z,97
2019-05-19T04:47:25.731Z,97
2019-05-19T04:48:25.162Z,97
2019-05-19T04:49:25.755Z,97
2019-05-19T04:50:25.747Z,97
2019-05-19T04:51:25.163Z,97
2019-05-19T04:52:25.273Z,97
2019-05-19T04:53:25.111Z,97
2019-05-19T04:54:25.053Z,97
2019-05-19T04:55:25.142Z,97
2019-05-19T04:56:25.168Z,97
2019-05-19T04:57:25.314Z,97
2019-05-19T04:58:25.223Z,97
2019-05-19T04:59:25.153Z,97
2019-05-19T05:00:25.172Z,97
2019-05-19T05:01:25.574Z,97
2019-05-19T05:02:25.559Z,97
2019-05-19T05:03:25.568Z,97
2019-05-19T05:04:29.155Z,97
2019-05-19T05:05:26.705Z,97
2019-05-19T05:06:27.187Z,97
2019-05-19T05:07:25.365Z,97
2019-05-19T05:08:29.997Z,97
2019-05-19T05:09:25.114Z,97
2019-05-19T05:10:25.264Z,97
2019-05-19T05:11:25.101Z,97
2019-05-19T05:12:25.097Z,97
2019-05-19T05:13:25.264Z,97
2019-05-19T05:14:25.605Z,97
2019-05-19T05:15:25.983Z,97
2019-05-19T05:16:26.340Z,97
2019-05-19T05:17:26.297Z,97
2019-05-19T05:18:25.465Z,97
2019-05-19T05:19:25.186Z,97
2019-05-19T05:20:25.335Z,97
2019-05-19T05:21:25.602Z,97
2019-05-19T05:22:25.694Z,97
2019-05-19T05:23:25.565Z,97
2019-05-19T05:24:28.458Z,97
2019-05-19T05:25:25.783Z,97
2019-05-19T05:26:25.510Z,97
2019-05-19T05:27:25.142Z,97
2019-05-19T05:28:25.877Z,97
2019-05-19T05:29:25.375Z,97
2019-05-19T05:30:25.716Z,97
2019-05-19T05:31:25.143Z,97
2019-05-19T05:32:27.648Z,97
2019-05-19T05:33:25.631Z,96
2019-05-19T05:34:25.542Z,96
2019-05-19T05:35:25.994Z,96
2019-05-19T05:36:27.667Z,96
2019-05-19T05:37:25.560Z,96
2019-05-19T05:38:25.823Z,96
2019-05-19T05:39:27.725Z,96
2019-05-19T05:40:26.254Z,96
2019-05-19T05:41:25.246Z,96
2019-05-19T05:42:25.713Z,96
2019-05-19T05:43:25.247Z,96
2019-05-19T05:44:25.472Z,96
2019-05-19T05:45:25.731Z,96
2019-05-19T05:46:25.596Z,96
2019-05-19T05:47:25.134Z,96
2019-05-19T05:48:26.404Z,97
2019-05-19T05:49:35.417Z,97
2019-05-19T05:50:25.619Z,97
2019-05-19T05:51:25.426Z,97
2019-05-19T05:52:37.255Z,97
2019-05-19T05:53:25.246Z,97
2019-05-19T05:54:25.777Z,97
2019-05-19T05:55:25.235Z,97
2019-05-19T05:56:25.798Z,96
2019-05-19T05:57:26.739Z,96
2019-05-19T05:58:27.193Z,96
2019-05-19T05:59:25.669Z,96
2019-05-19T06:00:25.206Z,96
2019-05-19T06:01:25.301Z,95
2019-05-19T06:02:25.223Z,95
2019-05-19T06:03:25.406Z,95
2019-05-19T06:04:25.487Z,96
2019-05-19T06:05:25.851Z,96
2019-05-19T06:06:25.667Z,95
2019-05-19T06:07:35.294Z,95
2019-05-19T06:08:25.950Z,95
2019-05-19T06:09:25.232Z,95
2019-05-19T06:10:25.183Z,95
2019-05-19T06:11:25.391Z,95
2019-05-19T06:12:26.210Z,95
2019-05-19T06:13:27.704Z,95
2019-05-19T06:14:27.639Z,94
2019-05-19T06:15:25.825Z,94
2019-05-19T06:16:25.201Z,94
2019-05-19T06:17:25.323Z,94
2019-05-19T06:18:25.864Z,94
2019-05-19T06:19:26.022Z,94
2019-05-19T06:20:25.612Z,94
2019-05-19T06:21:25.258Z,93
2019-05-19T06:22:25.681Z,93
2019-05-19T06:23:25.148Z,93
2019-05-19T06:24:27.846Z,92
2019-05-19T06:25:27.931Z,92
2019-05-19T06:26:25.930Z,92
2019-05-19T06:27:25.255Z,92
2019-05-19T06:28:25.724Z,92
2019-05-19T06:29:26.908Z,92
2019-05-19T06:30:25.515Z,92
2019-05-19T06:31:25.279Z,92
2019-05-19T06:32:26.057Z,92
2019-05-19T06:33:25.285Z,92
2019-05-19T06:34:25.367Z,92
2019-05-19T06:35:26.069Z,92
2019-05-19T06:41:23.977Z,92
2019-05-19T06:41:33.002Z,92
2019-05-19T06:42:33.100Z,92
2019-05-19T06:43:32.939Z,92
2019-05-19T06:44:33.067Z,92
2019-05-19T06:45:33.870Z,92
2019-05-19T06:46:32.909Z,92
2019-05-19T06:47:33.864Z,91
2019-05-19T06:48:33.139Z,91
2019-05-19T06:49:32.868Z,91
2019-05-19T06:50:32.814Z,91
2019-05-19T06:51:32.849Z,91
2019-05-19T06:52:33.295Z,91
2019-05-19T06:53:33.552Z,91
2019-05-19T06:54:33.147Z,91
2019-05-19T06:55:33.921Z,91
2019-05-19T06:56:32.770Z,91
2019-05-19T06:57:33.766Z,91
2019-05-19T07:08:21.019Z,91
2019-05-19T07:09:19.824Z,91
2019-05-19T07:10:19.930Z,91
2019-05-19T07:11:20.338Z,91
2019-05-19T07:12:20.307Z,91
2019-05-19T07:13:20.169Z,91
2019-05-19T07:14:20.011Z,91
2019-05-19T07:15:20.564Z,91
2019-05-19T07:16:20.781Z,91
2019-05-19T07:17:21.009Z,91
2019-05-19T07:18:21.745Z,91
2019-05-19T07:19:19.804Z,91
2019-05-19T07:20:19.807Z,92
2019-05-19T07:21:20.590Z,92
2019-05-19T07:22:20.358Z,92
2019-05-19T07:23:27.323Z,91
2019-05-19T07:24:19.922Z,91
2019-05-19T07:25:20.459Z,91
2019-05-19T07:26:21.055Z,91
2019-05-19T07:27:20.545Z,91
2019-05-19T07:28:50.072Z,91
2019-05-19T07:29:20.200Z,91
2019-05-19T07:30:21.230Z,91
2019-05-19T07:31:20.068Z,91
2019-05-19T07:32:19.836Z,91
2019-05-19T07:33:19.814Z,91
2019-05-19T07:34:20.222Z,91
2019-05-19T07:35:20.643Z,90
2019-05-19T07:36:19.943Z,90
2019-05-19T07:37:20.020Z,90
2019-05-19T07:38:19.870Z,89
2019-05-19T07:39:20.063Z,89
2019-05-19T07:40:20.065Z,90
2019-05-19T07:41:20.961Z,90
2019-05-19T07:42:19.894Z,90
2019-05-19T07:43:20.051Z,89
2019-05-19T07:44:20.388Z,89
2019-05-19T07:45:19.794Z,88
2019-05-19T07:46:20.014Z,88
2019-05-19T07:47:19.921Z,88
2019-05-19T07:48:20.382Z,88
2019-05-19T07:49:19.947Z,88
2019-05-19T07:50:20.794Z,88
2019-05-19T07:51:19.910Z,88
2019-05-19T07:52:20.910Z,88
2019-05-19T07:53:19.998Z,88
2019-05-19T07:54:20.784Z,88
2019-05-19T07:55:20.397Z,88
2019-05-19T07:56:20.077Z,87
2019-05-19T07:57:20.445Z,87
2019-05-19T07:58:48.495Z,87
2019-05-19T07:59:19.836Z,87
2019-05-19T08:00:19.923Z,87
2019-05-19T08:01:19.875Z,87
2019-05-19T08:02:21.577Z,87
2019-05-19T08:03:21.080Z,87
2019-05-19T08:04:19.914Z,87
2019-05-19T08:05:20.229Z,87
2019-05-19T08:06:20.812Z,88
2019-05-19T08:07:20.299Z,88
2019-05-19T08:08:20.731Z,86
2019-05-19T08:09:20.948Z,86
2019-05-19T08:10:20.871Z,86
2019-05-19T08:11:20.337Z,85
2019-05-19T08:12:21.140Z,85
2019-05-19T08:13:19.977Z,85
2019-05-19T08:14:19.873Z,85
2019-05-19T08:15:21.049Z,85
2019-05-19T08:16:19.930Z,84
2019-05-19T08:17:21.344Z,84
2019-05-19T08:18:20.147Z,85
2019-05-19T08:24:15.498Z,85
2019-05-19T08:24:24.387Z,85
2019-05-19T08:25:24.666Z,84
2019-05-19T08:26:25.007Z,84
2019-05-19T08:27:25.360Z,84
2019-05-19T08:28:24.648Z,84
2019-05-19T08:29:24.831Z,84
2019-05-19T08:30:25.179Z,84
2019-05-19T08:31:26.405Z,82
2019-05-19T08:32:25.582Z,82
2019-05-19T08:33:25.756Z,82
2019-05-19T08:34:24.322Z,83
2019-05-19T08:35:24.344Z,83
2019-05-19T08:36:25.583Z,82
2019-05-19T08:37:24.832Z,82
2019-05-19T08:38:24.565Z,82
2019-05-19T08:39:24.591Z,82
2019-05-19T08:40:24.435Z,82
2019-05-19T08:41:24.468Z,83
2019-05-19T08:42:26.157Z,83
2019-05-19T08:43:24.617Z,83
2019-05-19T08:44:24.849Z,81
2019-05-19T08:45:24.654Z,81
2019-05-19T08:46:24.402Z,80
2019-05-19T08:47:25.080Z,80
2019-05-19T08:48:25.024Z,80
2019-05-19T08:49:25.201Z,80
2019-05-19T08:50:24.933Z,80
2019-05-19T08:51:24.940Z,78
2019-05-19T08:52:24.923Z,78
2019-05-19T08:53:25.829Z,78
2019-05-19T08:54:24.550Z,78
2019-05-19T08:55:25.413Z,78
2019-05-19T08:56:24.998Z,78
2019-05-19T08:57:25.691Z,79
2019-05-19T08:58:24.658Z,79
2019-05-19T08:59:25.269Z,80
2019-05-19T09:00:25.198Z,80
2019-05-19T09:01:24.469Z,80
2019-05-19T09:02:24.589Z,82
2019-05-19T09:03:24.393Z,82
2019-05-19T09:04:24.685Z,81
2019-05-19T09:05:24.879Z,81
2019-05-19T09:06:24.844Z,81
2019-05-19T09:07:24.401Z,81
2019-05-19T09:08:24.758Z,81
2019-05-19T09:09:24.858Z,80
2019-05-19T09:10:24.851Z,80
2019-05-19T09:11:24.598Z,80
2019-05-19T09:12:26.465Z,81
2019-05-19T09:13:24.612Z,81
2019-05-19T09:14:24.931Z,80
2019-05-19T09:15:24.512Z,80
2019-05-19T09:16:24.435Z,80
2019-05-19T09:17:24.415Z,80
2019-05-19T09:18:24.364Z,80
2019-05-19T09:19:35.231Z,80
2019-05-19T09:20:24.741Z,80
2019-05-19T09:21:24.920Z,80
2019-05-19T09:22:24.439Z,81
2019-05-19T09:23:24.900Z,81
2019-05-19T09:24:30.132Z,81
2019-05-19T09:25:25.245Z,81
2019-05-19T09:26:24.454Z,81
2019-05-19T09:27:24.458Z,81
2019-05-19T09:28:24.643Z,81
2019-05-19T09:29:24.730Z,81
2019-05-19T09:30:24.879Z,82
2019-05-19T09:31:25.220Z,82
2019-05-19T09:32:24.598Z,82
2019-05-19T09:33:25.016Z,82
2019-05-19T09:34:24.766Z,82
2019-05-19T09:35:24.584Z,82
2019-05-19T09:36:24.775Z,82
2019-05-19T09:37:24.707Z,82
2019-05-19T09:38:25.038Z,82
2019-05-19T09:39:24.574Z,82
2019-05-19T09:40:26.609Z,82
2019-05-19T09:41:24.759Z,82
2019-05-19T09:42:24.735Z,81
2019-05-19T09:43:24.771Z,81
2019-05-19T09:44:24.647Z,81
2019-05-19T09:45:24.505Z,80
2019-05-19T09:46:25.139Z,80
2019-05-19T09:47:24.708Z,81
2019-05-19T09:48:24.497Z,81
2019-05-19T09:49:24.951Z,81
2019-05-19T09:50:25.405Z,81
2019-05-19T09:51:25.640Z,81
2019-05-19T09:52:24.674Z,81
2019-05-19T09:53:25.083Z,81
2019-05-19T09:54:24.590Z,81
2019-05-19T09:55:25.026Z,81
2019-05-19T09:56:24.677Z,81
2019-05-19T09:57:24.594Z,81
2019-05-19T09:58:25.030Z,81
2019-05-19T09:59:24.689Z,81
2019-05-19T10:00:25.979Z,79
2019-05-19T10:01:25.709Z,79
2019-05-19T10:02:24.486Z,79
2019-05-19T10:03:24.639Z,80
2019-05-19T10:04:24.561Z,80
2019-05-19T10:05:24.781Z,79
2019-05-19T10:06:24.573Z,79
2019-05-19T10:07:24.470Z,79
2019-05-19T10:08:25.871Z,79
2019-05-19T10:09:25.003Z,79
2019-05-19T10:10:24.767Z,78
2019-05-19T10:11:25.091Z,78
2019-05-19T10:12:25.101Z,78
2019-05-19T10:13:24.520Z,79
2019-05-19T10:14:24.701Z,79
2019-05-19T10:15:24.664Z,79
2019-05-19T10:16:24.808Z,79
2019-05-19T10:17:25.237Z,79
2019-05-19T10:18:25.352Z,78
2019-05-19T10:19:24.669Z,78
2019-05-19T10:20:24.817Z,77
2019-05-19T10:21:24.578Z,77
2019-05-19T10:22:24.576Z,77
2019-05-19T10:23:25.553Z,77
2019-05-19T10:24:24.882Z,77
2019-05-19T10:25:24.890Z,77
2019-05-19T10:26:24.862Z,77
2019-05-19T10:27:24.824Z,77
2019-05-19T10:28:24.643Z,77
2019-05-19T10:29:24.794Z,77
2019-05-19T10:30:26.850Z,77
2019-05-19T10:31:24.908Z,76
2019-05-19T10:32:25.118Z,76
2019-05-19T10:33:24.933Z,75
2019-05-19T10:34:24.740Z,75
2019-05-19T10:35:24.707Z,75
2019-05-19T10:36:24.809Z,75
2019-05-19T10:37:26.300Z,75
2019-05-19T10:38:24.680Z,76
2019-05-19T10:39:26.274Z,76
2019-05-19T10:40:25.970Z,76
2019-05-19T10:41:25.210Z,76
2019-05-19T10:42:25.103Z,76
2019-05-19T10:43:24.740Z,75
2019-05-19T10:44:25.149Z,75
2019-05-19T10:45:25.089Z,75
2019-05-19T10:46:24.825Z,76
2019-05-19T10:47:25.034Z,76
2019-05-19T10:48:25.124Z,75
2019-05-19T10:49:24.570Z,75
2019-05-19T10:50:24.765Z,75
2019-05-19T10:51:25.144Z,74
2019-05-19T10:52:26.221Z,74
2019-05-19T10:53:24.645Z,74
2019-05-19T10:54:24.684Z,74
2019-05-19T10:55:35.449Z,74
2019-05-19T10:56:24.706Z,74
2019-05-19T10:57:24.936Z,74
2019-05-19T10:58:24.962Z,74
2019-05-19T10:59:24.834Z,75
2019-05-19T11:00:25.103Z,75
2019-05-19T11:01:24.776Z,73
2019-05-19T11:02:24.732Z,73
2019-05-19T11:03:25.156Z,73
2019-05-19T11:04:24.739Z,74
2019-05-19T11:05:26.252Z,74
2019-05-19T11:06:24.657Z,74
2019-05-19T11:07:25.098Z,74
2019-05-19T11:08:25.151Z,74
2019-05-19T11:09:24.871Z,75
2019-05-19T11:10:24.755Z,75
2019-05-19T11:11:25.061Z,74
2019-05-19T11:12:25.101Z,74
2019-05-19T11:13:25.106Z,74
2019-05-19T11:14:24.972Z,76
2019-05-19T11:15:24.780Z,76
2019-05-19T11:16:25.307Z,73
2019-05-19T11:17:24.735Z,73
2019-05-19T11:18:27.287Z,73
2019-05-19T11:19:25.010Z,74
2019-05-19T11:20:25.856Z,74
2019-05-19T11:21:25.167Z,73
2019-05-19T11:22:24.801Z,73
2019-05-19T11:23:24.864Z,73
2019-05-19T11:24:26.870Z,73
2019-05-19T11:25:33.100Z,73
2019-05-19T11:26:25.160Z,73
2019-05-19T11:27:24.741Z,73
2019-05-19T11:28:24.684Z,73
2019-05-19T11:29:24.903Z,72
2019-05-19T11:30:25.022Z,72
2019-05-19T11:31:25.881Z,72
2019-05-19T11:32:24.696Z,71
2019-05-19T11:33:24.722Z,71
2019-05-19T11:34:25.044Z,72
2019-05-19T11:35:24.943Z,72
2019-05-19T11:36:24.986Z,72
2019-05-19T11:37:24.973Z,72
2019-05-19T11:38:25.154Z,72
2019-05-19T11:39:25.171Z,71
2019-05-19T11:40:24.906Z,71
2019-05-19T11:41:25.066Z,71
2019-05-19T11:42:25.298Z,71
2019-05-19T11:43:25.644Z,71
2019-05-19T11:44:25.605Z,72
2019-05-19T11:45:24.735Z,72
2019-05-19T11:46:24.845Z,72
2019-05-19T11:47:25.124Z,70
2019-05-19T11:48:26.305Z,70
2019-05-19T11:49:25.529Z,70
2019-05-19T11:50:24.913Z,70
2019-05-19T11:51:24.956Z,70
2019-05-19T11:52:27.129Z,69
2019-05-19T11:53:41.224Z,69
2019-05-19T11:54:25.173Z,69
2019-05-19T11:55:24.817Z,69
2019-05-19T11:56:28.828Z,69
2019-05-19T11:57:25.321Z,67
2019-05-19T11:58:25.510Z,67
2019-05-19T11:59:25.012Z,67
2019-05-19T12:00:24.989Z,67
2019-05-19T12:01:25.399Z,67
2019-05-19T12:02:24.649Z,67
2019-05-19T12:03:24.721Z,67
2019-05-19T12:04:25.332Z,67
2019-05-19T12:05:25.671Z,68
2019-05-19T12:06:36.152Z,68
2019-05-19T12:07:25.474Z,67
2019-05-19T12:08:25.485Z,67
2019-05-19T12:09:25.877Z,67
2019-05-19T12:10:24.794Z,67
2019-05-19T12:11:24.964Z,67
2019-05-19T12:12:24.989Z,68
2019-05-19T12:13:25.769Z,68
2019-05-19T12:14:24.882Z,68
2019-05-19T12:15:25.208Z,66
2019-05-19T12:16:24.754Z,66
2019-05-19T12:17:24.841Z,66
2019-05-19T12:18:25.354Z,66
2019-05-19T12:19:25.924Z,66
2019-05-19T12:20:25.427Z,67
2019-05-19T12:21:24.850Z,67
2019-05-19T12:22:41.159Z,66
2019-05-19T12:23:25.054Z,66
2019-05-19T12:24:24.922Z,66
2019-05-19T12:25:24.977Z,66
2019-05-19T12:26:26.693Z,66
2019-05-19T12:27:25.386Z,66
2019-05-19T12:28:24.747Z,66
2019-05-19T12:29:24.993Z,66
2019-05-19T12:30:25.026Z,66
2019-05-19T12:31:24.818Z,66
2019-05-19T12:32:25.123Z,66
2019-05-19T12:33:25.303Z,66
2019-05-19T12:34:25.039Z,66
2019-05-19T12:35:24.825Z,65
2019-05-19T12:36:26.523Z,65
2019-05-19T12:37:26.215Z,65
2019-05-19T12:38:24.885Z,66
2019-05-19T12:39:25.323Z,66
2019-05-19T12:40:25.934Z,65
2019-05-19T12:41:24.900Z,65
2019-05-19T12:42:25.173Z,65
2019-05-19T12:43:25.011Z,65
2019-05-19T12:44:25.566Z,65
2019-05-19T12:45:25.963Z,66
2019-05-19T12:46:24.955Z,66
2019-05-19T12:47:25.131Z,66
2019-05-19T12:48:25.588Z,66
2019-05-19T12:49:24.846Z,66
2019-05-19T12:50:25.137Z,66
2019-05-19T12:51:26.770Z,66
2019-05-19T12:52:24.768Z,66
2019-05-19T12:53:24.815Z,67
2019-05-19T12:54:25.029Z,67
2019-05-19T12:55:24.761Z,71
2019-05-19T12:56:38.285Z,71
2019-05-19T12:57:24.892Z,71
2019-05-19T12:58:25.140Z,71
2019-05-19T12:59:25.472Z,71
2019-05-19T13:00:24.793Z,71
2019-05-19T13:01:24.903Z,77
2019-05-19T13:02:25.457Z,77
2019-05-19T13:03:24.799Z,79
2019-05-19T13:04:24.973Z,79
2019-05-19T13:05:24.881Z,79
2019-05-19T13:06:25.063Z,77
2019-05-19T13:07:24.893Z,77
2019-05-19T13:08:25.376Z,76
2019-05-19T13:09:25.541Z,76
2019-05-19T13:10:25.116Z,76
2019-05-19T13:11:24.905Z,78
2019-05-19T13:12:25.323Z,78
2019-05-19T13:13:25.898Z,79
2019-05-19T13:14:25.394Z,79
2019-05-19T13:15:25.955Z,79
2019-05-19T13:16:25.012Z,81
2019-05-19T13:17:24.911Z,81
2019-05-19T13:18:24.914Z,81
2019-05-19T13:19:35.605Z,81
2019-05-19T13:20:25.288Z,81
2019-05-19T13:21:24.879Z,82
2019-05-19T13:22:24.996Z,82
2019-05-19T13:23:25.335Z,83
2019-05-19T13:24:24.796Z,83
2019-05-19T13:25:24.805Z,83
2019-05-19T13:26:25.663Z,84
2019-05-19T13:27:28.554Z,84
2019-05-19T13:28:24.912Z,85
2019-05-19T13:29:24.875Z,85
2019-05-19T13:30:25.505Z,85
2019-05-19T13:31:35.192Z,86
2019-05-19T13:32:26.577Z,86
2019-05-19T13:33:25.254Z,86
2019-05-19T13:34:24.809Z,87
2019-05-19T13:35:25.352Z,87
2019-05-19T13:36:24.833Z,88
2019-05-19T13:37:24.900Z,88
2019-05-19T13:38:53.820Z,88
2019-05-19T13:39:25.513Z,88
2019-05-19T13:40:25.106Z,88
2019-05-19T13:41:29.165Z,89
2019-05-19T13:42:24.921Z,89
2019-05-19T13:43:28.285Z,89
2019-05-19T13:44:25.003Z,90
2019-05-19T13:45:25.129Z,90
2019-05-19T13:46:26.215Z,90
2019-05-19T13:47:25.372Z,90
2019-05-19T13:48:25.118Z,90
2019-05-19T13:50:37.953Z,90
2019-05-19T13:51:37.579Z,90
2019-05-19T13:52:37.269Z,90
2019-05-19T13:53:38.131Z,90
2019-05-19T13:54:37.945Z,90
2019-05-19T13:55:37.272Z,90
2019-05-19T13:56:38.870Z,90
2019-05-19T13:57:37.201Z,90
2019-05-19T13:58:37.230Z,90
2019-05-19T13:59:37.228Z,90
2019-05-19T14:00:37.229Z,90
2019-05-19T14:01:37.215Z,90
2019-05-19T14:02:38.075Z,90
2019-05-19T14:03:38.720Z,90
2019-05-19T14:04:38.900Z,91
2019-05-19T14:05:37.456Z,91
2019-05-19T14:06:37.239Z,90
2019-05-19T14:07:37.322Z,90
2019-05-19T14:08:37.225Z,90
2019-05-19T14:09:37.362Z,90
2019-05-19T14:10:47.725Z,90
2019-05-19T14:11:37.504Z,90
2019-05-19T14:12:37.862Z,90
2019-05-19T14:13:37.164Z,90
2019-05-19T14:14:37.430Z,90
2019-05-19T14:15:37.286Z,90
2019-05-19T14:16:37.547Z,90
2019-05-19T14:17:37.683Z,89
2019-05-19T14:18:37.246Z,89
2019-05-19T14:19:38.889Z,89
2019-05-19T14:20:37.284Z,89
2019-05-19T14:21:38.195Z,89
2019-05-19T14:22:37.775Z,88
2019-05-19T14:23:37.304Z,88
2019-05-19T14:24:37.516Z,88
2019-05-19T14:25:37.900Z,88
2019-05-19T14:26:37.851Z,88
2019-05-19T14:27:37.458Z,87
2019-05-19T14:28:37.230Z,87
2019-05-19T14:29:37.785Z,87
2019-05-19T14:30:37.748Z,87
2019-05-19T14:31:38.359Z,87
2019-05-19T14:32:37.219Z,87
2019-05-19T14:33:37.312Z,87
2019-05-19T14:34:37.388Z,88
2019-05-19T14:35:37.236Z,88
2019-05-19T14:36:37.263Z,88
2019-05-19T14:37:38.782Z,88
2019-05-19T14:38:37.315Z,88
2019-05-19T14:39:37.384Z,89
2019-05-19T14:40:37.288Z,89
2019-05-19T14:41:37.866Z,89
2019-05-19T14:42:37.769Z,89
2019-05-19T14:43:37.634Z,89
2019-05-19T14:44:37.786Z,89
2019-05-19T14:45:37.683Z,89
2019-05-19T14:46:37.268Z,89
2019-05-19T14:47:37.804Z,88
2019-05-19T14:48:37.283Z,88
2019-05-19T14:49:39.218Z,88
2019-05-19T14:50:37.359Z,88
2019-05-19T14:51:38.015Z,88
2019-05-19T14:52:37.681Z,88
2019-05-19T14:53:38.037Z,88
2019-05-19T14:54:37.748Z,88
2019-05-19T14:55:37.472Z,87
2019-05-19T14:56:37.328Z,87
2019-05-19T14:57:44.342Z,87
2019-05-19T14:58:37.942Z,87
2019-05-19T14:59:37.426Z,87
2019-05-19T15:00:38.625Z,87
2019-05-19T15:01:37.556Z,87